sensor_id;sensor_type;location;lat;lon;timestamp;pressure;altitude;pressure_sealevel;temperature;humidity
1401;BME280;46518;48.842;8.926;2024-01-07T00:02:16;96539.34;;;4.41;100.00
1401;BME280;46518;48.842;8.926;2024-01-07T00:04:44;96532.06;;;4.31;100.00
1401;BME280;46518;48.842;8.926;2024-01-07T00:07:12;96541.69;;;4.30;100.00
1401;BME280;46518;48.842;8.926;2024-01-07T00:09:40;96542.34;;;4.44;100.00
1401;BME280;46518;48.842;8.926;2024-01-07T00:12:08;96548.75;;;4.42;100.00
1401;BME280;46518;48.842;8.926;2024-01-07T00:14:37;96542.59;;;4.54;100.00
1401;BME280;46518;48.842;8.926;2024-01-07T00:17:05;96557.25;;;4.67;100.00
1401;BME280;46518;48.842;8.926;2024-01-07T00:19:35;96550.16;;;4.74;100.00
1401;BME280;46518;48.842;8.926;2024-01-07T00:22:04;96556.03;;;4.70;100.00
1401;BME280;46518;48.842;8.926;2024-01-07T00:24:32;96551.94;;;4.74;100.00
1401;BME280;46518;48.842;8.926;2024-01-07T00:27:00;96556.94;;;4.45;100.00
1401;BME280;46518;48.842;8.926;2024-01-07T00:29:28;96548.91;;;4.47;100.00
1401;BME280;46518;48.842;8.926;2024-01-07T00:31:57;96548.72;;;4.30;100.00
1401;BME280;46518;48.842;8.926;2024-01-07T00:34:26;96554.50;;;4.32;100.00
1401;BME280;46518;48.842;8.926;2024-01-07T00:36:55;96545.44;;;4.35;100.00
1401;BME280;46518;48.842;8.926;2024-01-07T00:39:24;96550.63;;;4.04;100.00
1401;BME280;46518;48.842;8.926;2024-01-07T00:41:52;96551.75;;;4.08;100.00
1401;BME280;46518;48.842;8.926;2024-01-07T00:44:20;96550.22;;;4.01;100.00
1401;BME280;46518;48.842;8.926;2024-01-07T00:46:48;96550.66;;;4.16;100.00
1401;BME280;46518;48.842;8.926;2024-01-07T00:49:17;96552.41;;;4.22;100.00
1401;BME280;46518;48.842;8.926;2024-01-07T00:51:45;96548.34;;;4.26;100.00
1401;BME280;46518;48.842;8.926;2024-01-07T00:54:15;96550.53;;;4.29;100.00
1401;BME280;46518;48.842;8.926;2024-01-07T00:56:43;96555.00;;;4.22;100.00
1401;BME280;46518;48.842;8.926;2024-01-07T00:59:11;96556.16;;;4.08;100.00
1401;BME280;46518;48.842;8.926;2024-01-07T01:01:39;96549.59;;;4.05;100.00
1401;BME280;46518;48.842;8.926;2024-01-07T01:07:49;96547.72;;;4.13;100.00
1401;BME280;46518;48.842;8.926;2024-01-07T01:10:20;96551.25;;;4.00;100.00
1401;BME280;46518;48.842;8.926;2024-01-07T01:12:48;96551.25;;;4.00;100.00
1401;BME280;46518;48.842;8.926;2024-01-07T01:15:16;96556.47;;;4.00;100.00
1401;BME280;46518;48.842;8.926;2024-01-07T01:17:45;96550.09;;;3.77;100.00
1401;BME280;46518;48.842;8.926;2024-01-07T01:20:13;96562.31;;;3.95;100.00
1401;BME280;46518;48.842;8.926;2024-01-07T01:22:41;96558.53;;;3.91;100.00
1401;BME280;46518;48.842;8.926;2024-01-07T01:25:11;96559.34;;;3.92;100.00
1401;BME280;46518;48.842;8.926;2024-01-07T01:27:40;96563.53;;;4.11;100.00
1401;BME280;46518;48.842;8.926;2024-01-07T01:30:12;96563.41;;;4.06;100.00
1401;BME280;46518;48.842;8.926;2024-01-07T01:32:41;96569.25;;;4.01;100.00
1401;BME280;46518;48.842;8.926;2024-01-07T01:35:09;96561.53;;;4.13;100.00
1401;BME280;46518;48.842;8.926;2024-01-07T01:37:37;96571.59;;;4.09;100.00
1401;BME280;46518;48.842;8.926;2024-01-07T01:40:06;96567.16;;;4.10;100.00
1401;BME280;46518;48.842;8.926;2024-01-07T01:42:34;96566.88;;;4.18;100.00
1401;BME280;46518;48.842;8.926;2024-01-07T01:45:05;96571.16;;;4.13;100.00
1401;BME280;46518;48.842;8.926;2024-01-07T01:47:33;96573.81;;;4.06;100.00
1401;BME280;46518;48.842;8.926;2024-01-07T01:50:01;96567.81;;;4.05;100.00
1401;BME280;46518;48.842;8.926;2024-01-07T01:52:30;96578.38;;;4.10;100.00
1401;BME280;46518;48.842;8.926;2024-01-07T01:54:59;96569.84;;;4.03;100.00
1401;BME280;46518;48.842;8.926;2024-01-07T01:57:33;96572.72;;;4.14;100.00
1401;BME280;46518;48.842;8.926;2024-01-07T02:00:04;96567.28;;;3.97;100.00
1401;BME280;46518;48.842;8.926;2024-01-07T02:02:37;96572.44;;;3.85;100.00
1401;BME280;46518;48.842;8.926;2024-01-07T02:05:05;96564.19;;;3.88;100.00
1401;BME280;46518;48.842;8.926;2024-01-07T02:07:34;96568.66;;;3.99;100.00
1401;BME280;46518;48.842;8.926;2024-01-07T02:10:03;96568.75;;;4.11;100.00
1401;BME280;46518;48.842;8.926;2024-01-07T02:12:31;96571.16;;;4.13;100.00
1401;BME280;46518;48.842;8.926;2024-01-07T02:15:00;96569.69;;;3.98;100.00
1401;BME280;46518;48.842;8.926;2024-01-07T02:17:29;96572.09;;;4.00;100.00
1401;BME280;46518;48.842;8.926;2024-01-07T02:19:57;96576.13;;;4.14;100.00
1401;BME280;46518;48.842;8.926;2024-01-07T02:22:26;96583.38;;;4.12;100.00
1401;BME280;46518;48.842;8.926;2024-01-07T02:24:55;96578.72;;;4.14;100.00
1401;BME280;46518;48.842;8.926;2024-01-07T02:27:23;96581.19;;;4.27;100.00
1401;BME280;46518;48.842;8.926;2024-01-07T02:29:52;96575.41;;;4.25;100.00
1401;BME280;46518;48.842;8.926;2024-01-07T02:32:20;96578.16;;;4.12;100.00
1401;BME280;46518;48.842;8.926;2024-01-07T02:34:48;96576.84;;;4.21;100.00
1401;BME280;46518;48.842;8.926;2024-01-07T02:37:16;96582.78;;;4.28;100.00
1401;BME280;46518;48.842;8.926;2024-01-07T02:39:44;96576.13;;;4.32;100.00
1401;BME280;46518;48.842;8.926;2024-01-07T02:42:27;96579.31;;;4.35;100.00
1401;BME280;46518;48.842;8.926;2024-01-07T02:44:57;96579.72;;;4.31;100.00
1401;BME280;46518;48.842;8.926;2024-01-07T02:47:25;96575.72;;;4.17;100.00
1401;BME280;46518;48.842;8.926;2024-01-07T02:49:55;96581.72;;;4.18;100.00
1401;BME280;46518;48.842;8.926;2024-01-07T02:52:23;96582.78;;;4.28;100.00
1401;BME280;46518;48.842;8.926;2024-01-07T02:54:51;96577.63;;;4.22;100.00
1401;BME280;46518;48.842;8.926;2024-01-07T02:57:19;96582.84;;;4.22;100.00
1401;BME280;46518;48.842;8.926;2024-01-07T02:59:49;96582.13;;;4.33;100.00
1401;BME280;46518;48.842;8.926;2024-01-07T03:02:17;96587.69;;;4.37;100.00
1401;BME280;46518;48.842;8.926;2024-01-07T03:04:46;96583.84;;;4.39;100.00
1401;BME280;46518;48.842;8.926;2024-01-07T03:07:14;96587.19;;;4.28;100.00
1401;BME280;46518;48.842;8.926;2024-01-07T03:09:42;96589.66;;;4.23;100.00
1401;BME280;46518;48.842;8.926;2024-01-07T03:12:14;96589.88;;;4.21;100.00
1401;BME280;46518;48.842;8.926;2024-01-07T03:14:43;96586.34;;;4.16;100.00
1401;BME280;46518;48.842;8.926;2024-01-07T03:17:12;96586.69;;;4.19;100.00
1401;BME280;46518;48.842;8.926;2024-01-07T03:19:41;96581.34;;;4.32;100.00
1401;BME280;46518;48.842;8.926;2024-01-07T03:22:10;96588.00;;;4.47;100.00
1401;BME280;46518;48.842;8.926;2024-01-07T03:24:38;96591.25;;;4.42;100.00
1401;BME280;46518;48.842;8.926;2024-01-07T03:27:06;96594.72;;;4.54;100.00
1401;BME280;46518;48.842;8.926;2024-01-07T03:29:34;96596.31;;;4.37;100.00
1401;BME280;46518;48.842;8.926;2024-01-07T03:32:03;96596.53;;;4.36;100.00
1401;BME280;46518;48.842;8.926;2024-01-07T03:34:34;96602.28;;;4.56;100.00
1401;BME280;46518;48.842;8.926;2024-01-07T03:37:02;96607.16;;;4.52;100.00
1401;BME280;46518;48.842;8.926;2024-01-07T03:39:32;96603.22;;;4.62;100.00
1401;BME280;46518;48.842;8.926;2024-01-07T03:42:00;96603.22;;;4.62;100.00
1401;BME280;46518;48.842;8.926;2024-01-07T03:44:53;96597.28;;;4.73;100.00
1401;BME280;46518;48.842;8.926;2024-01-07T03:47:21;96605.44;;;4.76;100.00
1401;BME280;46518;48.842;8.926;2024-01-07T03:49:51;96606.16;;;4.84;100.00
1401;BME280;46518;48.842;8.926;2024-01-07T03:52:19;96612.72;;;4.74;100.00
1401;BME280;46518;48.842;8.926;2024-01-07T03:54:49;96607.78;;;4.66;100.00
1401;BME280;46518;48.842;8.926;2024-01-07T03:57:18;96600.66;;;4.73;100.00
1401;BME280;46518;48.842;8.926;2024-01-07T03:59:46;96602.84;;;4.76;100.00
1401;BME280;46518;48.842;8.926;2024-01-07T04:02:14;96599.81;;;4.80;100.00
1401;BME280;46518;48.842;8.926;2024-01-07T04:04:43;96605.41;;;4.65;100.00
1401;BME280;46518;48.842;8.926;2024-01-07T04:07:13;96597.28;;;4.73;100.00
1401;BME280;46518;48.842;8.926;2024-01-07T04:09:42;96608.72;;;4.72;100.00
1401;BME280;46518;48.842;8.926;2024-01-07T04:12:11;96615.72;;;4.71;100.00
1401;BME280;46518;48.842;8.926;2024-01-07T04:14:39;96612.19;;;4.84;100.00
1401;BME280;46518;48.842;8.926;2024-01-07T04:17:07;96610.94;;;4.87;100.00
1401;BME280;46518;48.842;8.926;2024-01-07T04:19:36;96612.31;;;4.89;100.00
1401;BME280;46518;48.842;8.926;2024-01-07T04:22:05;96619.75;;;5.04;100.00
1401;BME280;46518;48.842;8.926;2024-01-07T04:24:35;96615.31;;;5.05;100.00
1401;BME280;46518;48.842;8.926;2024-01-07T04:27:03;96629.59;;;5.02;100.00
1401;BME280;46518;48.842;8.926;2024-01-07T04:29:32;96629.34;;;4.92;100.00
1401;BME280;46518;48.842;8.926;2024-01-07T04:32:00;96619.56;;;4.87;100.00
1401;BME280;46518;48.842;8.926;2024-01-07T04:34:28;96631.88;;;4.80;100.00
1401;BME280;46518;48.842;8.926;2024-01-07T04:36:57;96625.44;;;4.83;100.00
1401;BME280;46518;48.842;8.926;2024-01-07T04:39:25;96627.72;;;4.91;100.00
1401;BME280;46518;48.842;8.926;2024-01-07T04:41:55;96630.91;;;4.93;100.00
1401;BME280;46518;48.842;8.926;2024-01-07T04:44:23;96631.56;;;4.88;100.00
1401;BME280;46518;48.842;8.926;2024-01-07T04:46:51;96629.88;;;4.94;100.00
1401;BME280;46518;48.842;8.926;2024-01-07T04:49:19;96633.31;;;4.94;100.00
1401;BME280;46518;48.842;8.926;2024-01-07T04:51:48;96639.38;;;4.88;100.00
1401;BME280;46518;48.842;8.926;2024-01-07T04:54:17;96643.53;;;4.78;100.00
1401;BME280;46518;48.842;8.926;2024-01-07T04:56:46;96645.38;;;4.77;100.00
1401;BME280;46518;48.842;8.926;2024-01-07T04:59:15;96642.78;;;4.89;100.00
1401;BME280;46518;48.842;8.926;2024-01-07T05:01:43;96648.69;;;4.84;100.00
1401;BME280;46518;48.842;8.926;2024-01-07T05:04:11;96646.59;;;4.74;100.00
1401;BME280;46518;48.842;8.926;2024-01-07T05:06:40;96640.69;;;4.79;100.00
1401;BME280;46518;48.842;8.926;2024-01-07T05:09:08;96648.09;;;4.82;100.00
1401;BME280;46518;48.842;8.926;2024-01-07T05:11:39;96644.63;;;4.70;100.00
1401;BME280;46518;48.842;8.926;2024-01-07T05:14:11;96643.47;;;4.84;100.00
1401;BME280;46518;48.842;8.926;2024-01-07T05:16:40;96644.41;;;4.71;100.00
1401;BME280;46518;48.842;8.926;2024-01-07T05:19:09;96651.94;;;4.61;100.00
1401;BME280;46518;48.842;8.926;2024-01-07T05:21:39;96664.72;;;4.69;100.00
1401;BME280;46518;48.842;8.926;2024-01-07T05:24:07;96656.38;;;4.61;100.00
1401;BME280;46518;48.842;8.926;2024-01-07T05:26:38;96658.59;;;4.75;100.00
1401;BME280;46518;48.842;8.926;2024-01-07T05:29:06;96658.88;;;4.86;100.00
1401;BME280;46518;48.842;8.926;2024-01-07T05:31:37;96656.50;;;4.84;100.00
1401;BME280;46518;48.842;8.926;2024-01-07T05:34:07;96660.91;;;4.84;100.00
1401;BME280;46518;48.842;8.926;2024-01-07T05:36:36;96660.63;;;4.73;100.00
1401;BME280;46518;48.842;8.926;2024-01-07T05:39:04;96669.38;;;4.79;100.00
1401;BME280;46518;48.842;8.926;2024-01-07T05:41:33;96666.28;;;4.70;100.00
1401;BME280;46518;48.842;8.926;2024-01-07T05:44:06;96664.97;;;4.61;100.00
1401;BME280;46518;48.842;8.926;2024-01-07T05:46:38;96668.88;;;4.70;100.00
1401;BME280;46518;48.842;8.926;2024-01-07T05:49:08;96667.16;;;4.83;100.00
1401;BME280;46518;48.842;8.926;2024-01-07T05:51:38;96674.22;;;4.94;100.00
1401;BME280;46518;48.842;8.926;2024-01-07T05:54:07;96683.00;;;4.81;100.00
1401;BME280;46518;48.842;8.926;2024-01-07T05:56:38;96685.75;;;4.86;100.00
1401;BME280;46518;48.842;8.926;2024-01-07T05:59:07;96686.13;;;4.90;100.00
1401;BME280;46518;48.842;8.926;2024-01-07T06:01:35;96676.28;;;4.73;100.00
1401;BME280;46518;48.842;8.926;2024-01-07T06:04:04;96682.22;;;4.62;100.00
1401;BME280;46518;48.842;8.926;2024-01-07T06:06:33;96682.00;;;4.64;100.00
1401;BME280;46518;48.842;8.926;2024-01-07T06:09:02;96687.19;;;4.64;100.00
1401;BME280;46518;48.842;8.926;2024-01-07T06:11:31;96691.13;;;4.54;100.00
1401;BME280;46518;48.842;8.926;2024-01-07T06:13:59;96690.03;;;4.44;100.00
1401;BME280;46518;48.842;8.926;2024-01-07T06:16:27;96688.38;;;4.68;100.00
1401;BME280;46518;48.842;8.926;2024-01-07T06:18:55;96695.75;;;4.52;100.00
1401;BME280;46518;48.842;8.926;2024-01-07T06:21:24;96692.38;;;4.52;100.00
1401;BME280;46518;48.842;8.926;2024-01-07T06:23:53;96700.69;;;4.61;100.00
1401;BME280;46518;48.842;8.926;2024-01-07T06:26:21;96694.38;;;4.68;100.00
1401;BME280;46518;48.842;8.926;2024-01-07T06:28:49;96700.81;;;4.47;100.00
1401;BME280;46518;48.842;8.926;2024-01-07T06:31:18;96701.56;;;4.54;100.00
1401;BME280;46518;48.842;8.926;2024-01-07T06:33:46;96711.84;;;4.49;100.00
1401;BME280;46518;48.842;8.926;2024-01-07T06:36:15;96710.16;;;4.55;100.00
1401;BME280;46518;48.842;8.926;2024-01-07T06:38:43;96711.69;;;4.44;100.00
1401;BME280;46518;48.842;8.926;2024-01-07T06:41:12;96712.69;;;4.43;100.00
1401;BME280;46518;48.842;8.926;2024-01-07T06:43:40;96718.53;;;4.39;100.00
1401;BME280;46518;48.842;8.926;2024-01-07T06:46:09;96722.25;;;4.49;100.00
1401;BME280;46518;48.842;8.926;2024-01-07T06:48:38;96724.31;;;4.41;100.00
1401;BME280;46518;48.842;8.926;2024-01-07T06:51:11;96716.31;;;4.42;100.00
1401;BME280;46518;48.842;8.926;2024-01-07T06:53:40;96727.53;;;4.43;100.00
1401;BME280;46518;48.842;8.926;2024-01-07T06:56:09;96728.75;;;4.40;100.00
1401;BME280;46518;48.842;8.926;2024-01-07T06:58:38;96734.31;;;4.44;100.00
1401;BME280;46518;48.842;8.926;2024-01-07T07:01:07;96730.41;;;4.35;100.00
1401;BME280;46518;48.842;8.926;2024-01-07T07:03:35;96736.63;;;4.33;100.00
1401;BME280;46518;48.842;8.926;2024-01-07T07:06:04;96733.34;;;4.20;100.00
1401;BME280;46518;48.842;8.926;2024-01-07T07:08:32;96738.78;;;4.37;100.00
1401;BME280;46518;48.842;8.926;2024-01-07T07:11:00;96741.47;;;4.30;100.00
1401;BME280;46518;48.842;8.926;2024-01-07T07:13:29;96751.88;;;4.30;100.00
1401;BME280;46518;48.842;8.926;2024-01-07T07:15:58;96749.19;;;4.37;100.00
1401;BME280;46518;48.842;8.926;2024-01-07T07:18:27;96751.81;;;4.37;100.00
1401;BME280;46518;48.842;8.926;2024-01-07T07:20:55;96752.47;;;4.32;100.00
1401;BME280;46518;48.842;8.926;2024-01-07T07:23:26;96765.56;;;4.44;100.00
1401;BME280;46518;48.842;8.926;2024-01-07T07:25:54;96759.63;;;4.37;100.00
1401;BME280;46518;48.842;8.926;2024-01-07T07:28:23;96768.56;;;4.47;100.00
1401;BME280;46518;48.842;8.926;2024-01-07T07:30:52;96769.38;;;4.48;100.00
1401;BME280;46518;48.842;8.926;2024-01-07T07:33:22;96770.16;;;4.48;100.00
1401;BME280;46518;48.842;8.926;2024-01-07T07:35:51;96773.78;;;4.47;100.00
1401;BME280;46518;48.842;8.926;2024-01-07T07:38:22;96780.75;;;4.28;100.00
1401;BME280;46518;48.842;8.926;2024-01-07T07:40:50;96781.53;;;4.29;100.00
1401;BME280;46518;48.842;8.926;2024-01-07T07:43:20;96786.25;;;4.39;100.00
1401;BME280;46518;48.842;8.926;2024-01-07T07:45:48;96784.78;;;4.49;100.00
1401;BME280;46518;48.842;8.926;2024-01-07T07:48:18;96788.34;;;4.30;100.00
1401;BME280;46518;48.842;8.926;2024-01-07T07:50:50;96792.75;;;4.54;100.00
1401;BME280;46518;48.842;8.926;2024-01-07T07:53:18;96795.22;;;4.49;100.00
1401;BME280;46518;48.842;8.926;2024-01-07T07:55:46;96796.78;;;4.50;100.00
1401;BME280;46518;48.842;8.926;2024-01-07T07:58:14;96802.69;;;4.64;100.00
1401;BME280;46518;48.842;8.926;2024-01-07T08:00:42;96809.03;;;4.50;100.00
1401;BME280;46518;48.842;8.926;2024-01-07T08:03:11;96817.81;;;4.30;100.00
1401;BME280;46518;48.842;8.926;2024-01-07T08:05:40;96807.59;;;4.29;100.00
1401;BME280;46518;48.842;8.926;2024-01-07T08:08:10;96819.84;;;4.22;100.00
1401;BME280;46518;48.842;8.926;2024-01-07T08:10:38;96820.41;;;4.30;100.00
1401;BME280;46518;48.842;8.926;2024-01-07T08:13:06;96820.72;;;4.16;100.00
1401;BME280;46518;48.842;8.926;2024-01-07T08:15:38;96823.34;;;4.09;100.00
1401;BME280;46518;48.842;8.926;2024-01-07T08:18:06;96829.59;;;4.08;100.00
1401;BME280;46518;48.842;8.926;2024-01-07T08:20:35;96829.16;;;4.11;100.00
1401;BME280;46518;48.842;8.926;2024-01-07T08:23:03;96833.78;;;4.09;100.00
1401;BME280;46518;48.842;8.926;2024-01-07T08:25:33;96842.44;;;4.03;100.00
1401;BME280;46518;48.842;8.926;2024-01-07T08:28:01;96830.53;;;3.82;100.00
1401;BME280;46518;48.842;8.926;2024-01-07T08:30:30;96841.75;;;3.82;100.00
1401;BME280;46518;48.842;8.926;2024-01-07T08:32:59;96837.78;;;3.80;100.00
1401;BME280;46518;48.842;8.926;2024-01-07T08:35:27;96839.31;;;3.87;100.00
1401;BME280;46518;48.842;8.926;2024-01-07T08:37:55;96841.94;;;3.87;100.00
1401;BME280;46518;48.842;8.926;2024-01-07T08:40:24;96846.72;;;3.91;100.00
1401;BME280;46518;48.842;8.926;2024-01-07T08:42:54;96842.81;;;3.68;100.00
1401;BME280;46518;48.842;8.926;2024-01-07T08:45:22;96848.56;;;3.77;100.00
1401;BME280;46518;48.842;8.926;2024-01-07T08:47:50;96853.59;;;3.78;100.00
1401;BME280;46518;48.842;8.926;2024-01-07T08:50:19;96848.34;;;3.85;100.00
1401;BME280;46518;48.842;8.926;2024-01-07T08:52:48;96853.94;;;3.88;100.00
1401;BME280;46518;48.842;8.926;2024-01-07T08:55:17;96847.31;;;3.93;100.00
1401;BME280;46518;48.842;8.926;2024-01-07T08:57:45;96853.22;;;4.06;100.00
1401;BME280;46518;48.842;8.926;2024-01-07T09:00:18;96857.72;;;3.93;100.00
1401;BME280;46518;48.842;8.926;2024-01-07T09:02:46;96857.28;;;4.02;100.00
1401;BME280;46518;48.842;8.926;2024-01-07T09:05:15;96856.44;;;4.02;100.00
1401;BME280;46518;48.842;8.926;2024-01-07T09:07:43;96860.88;;;4.01;100.00
1401;BME280;46518;48.842;8.926;2024-01-07T09:10:12;96860.50;;;3.98;100.00
1401;BME280;46518;48.842;8.926;2024-01-07T09:12:41;96866.03;;;4.08;100.00
1401;BME280;46518;48.842;8.926;2024-01-07T09:15:09;96871.50;;;4.00;100.00
1401;BME280;46518;48.842;8.926;2024-01-07T09:17:39;96873.88;;;4.01;100.00
1401;BME280;46518;48.842;8.926;2024-01-07T09:20:08;96871.44;;;4.06;100.00
1401;BME280;46518;48.842;8.926;2024-01-07T09:22:36;96878.69;;;4.04;100.00
1401;BME280;46518;48.842;8.926;2024-01-07T09:25:05;96882.50;;;4.02;100.00
1401;BME280;46518;48.842;8.926;2024-01-07T09:27:34;96880.13;;;3.94;100.00
1401;BME280;46518;48.842;8.926;2024-01-07T09:30:03;96890.53;;;4.00;100.00
1401;BME280;46518;48.842;8.926;2024-01-07T09:32:31;96884.88;;;4.10;100.00
1401;BME280;46518;48.842;8.926;2024-01-07T09:35:05;96883.78;;;4.24;100.00
1401;BME280;46518;48.842;8.926;2024-01-07T09:37:34;96889.63;;;4.20;100.00
1401;BME280;46518;48.842;8.926;2024-01-07T09:40:03;96888.13;;;4.30;100.00
1401;BME280;46518;48.842;8.926;2024-01-07T09:42:33;96892.16;;;4.26;100.00
1401;BME280;46518;48.842;8.926;2024-01-07T09:45:02;96894.84;;;4.13;100.00
1401;BME280;46518;48.842;8.926;2024-01-07T09:47:32;96899.22;;;4.19;100.00
1401;BME280;46518;48.842;8.926;2024-01-07T09:50:00;96903.31;;;4.02;100.00
1401;BME280;46518;48.842;8.926;2024-01-07T09:52:29;96894.75;;;3.95;100.00
1401;BME280;46518;48.842;8.926;2024-01-07T09:54:59;96905.75;;;3.97;100.00
1401;BME280;46518;48.842;8.926;2024-01-07T09:57:27;96892.81;;;3.83;100.00
1401;BME280;46518;48.842;8.926;2024-01-07T09:59:56;96900.81;;;3.82;100.00
1401;BME280;46518;48.842;8.926;2024-01-07T10:02:24;96903.22;;;3.83;100.00
1401;BME280;46518;48.842;8.926;2024-01-07T10:04:52;96901.09;;;3.67;100.00
1401;BME280;46518;48.842;8.926;2024-01-07T10:07:20;96903.28;;;3.70;100.00
1401;BME280;46518;48.842;8.926;2024-01-07T10:09:50;96905.66;;;3.78;100.00
1401;BME280;46518;48.842;8.926;2024-01-07T10:12:23;96907.75;;;3.50;100.00
1401;BME280;46518;48.842;8.926;2024-01-07T10:14:52;96906.13;;;3.55;100.00
1401;BME280;46518;48.842;8.926;2024-01-07T10:17:20;96910.75;;;3.46;100.00
1401;BME280;46518;48.842;8.926;2024-01-07T10:19:54;96906.81;;;3.31;100.00
1401;BME280;46518;48.842;8.926;2024-01-07T10:22:22;96903.81;;;3.27;100.00
1401;BME280;46518;48.842;8.926;2024-01-07T10:24:52;96921.03;;;3.15;100.00
1401;BME280;46518;48.842;8.926;2024-01-07T10:27:22;96922.84;;;3.08;100.00
1401;BME280;46518;48.842;8.926;2024-01-07T10:29:50;96927.03;;;3.09;100.00
1401;BME280;46518;48.842;8.926;2024-01-07T10:32:22;96926.44;;;3.07;100.00
1401;BME280;46518;48.842;8.926;2024-01-07T10:34:52;96918.47;;;2.95;100.00
1401;BME280;46518;48.842;8.926;2024-01-07T10:37:26;96915.84;;;3.01;100.00
1401;BME280;46518;48.842;8.926;2024-01-07T10:39:58;96912.66;;;3.06;100.00
1401;BME280;46518;48.842;8.926;2024-01-07T10:42:31;96916.63;;;3.09;100.00
1401;BME280;46518;48.842;8.926;2024-01-07T10:45:00;96921.63;;;3.30;100.00
1401;BME280;46518;48.842;8.926;2024-01-07T10:47:31;96915.22;;;3.26;100.00
1401;BME280;46518;48.842;8.926;2024-01-07T10:50:01;96916.19;;;3.32;100.00
1401;BME280;46518;48.842;8.926;2024-01-07T10:52:32;96917.22;;;3.24;100.00
1401;BME280;46518;48.842;8.926;2024-01-07T10:58:24;96915.19;;;3.33;100.00
1401;BME280;46518;48.842;8.926;2024-01-07T11:04:17;96915.34;;;3.51;100.00
1401;BME280;46518;48.842;8.926;2024-01-07T11:06:52;96920.16;;;3.48;100.00
1401;BME280;46518;48.842;8.926;2024-01-07T11:09:28;96915.19;;;3.33;100.00
1401;BME280;46518;48.842;8.926;2024-01-07T11:12:00;96921.00;;;3.28;100.00
1401;BME280;46518;48.842;8.926;2024-01-07T11:14:37;96927.78;;;3.29;100.00
1401;BME280;46518;48.842;8.926;2024-01-07T11:17:07;96923.63;;;3.28;100.00
1401;BME280;46518;48.842;8.926;2024-01-07T11:19:35;96923.66;;;3.15;100.00
1401;BME280;46518;48.842;8.926;2024-01-07T11:22:23;96917.22;;;3.24;100.00
1401;BME280;46518;48.842;8.926;2024-01-07T11:24:58;96926.03;;;3.30;100.00
1401;BME280;46518;48.842;8.926;2024-01-07T11:27:29;96927.59;;;3.37;100.00
1401;BME280;46518;48.842;8.926;2024-01-07T11:30:02;96921.22;;;3.20;100.00
1401;BME280;46518;48.842;8.926;2024-01-07T11:32:33;96929.03;;;3.20;100.00
1401;BME280;46518;48.842;8.926;2024-01-07T11:35:02;96930.66;;;3.08;100.00
1401;BME280;46518;48.842;8.926;2024-01-07T11:37:31;96936.22;;;3.11;100.00
1401;BME280;46518;48.842;8.926;2024-01-07T11:39:59;96924.06;;;3.05;100.00
1401;BME280;46518;48.842;8.926;2024-01-07T11:42:28;96932.03;;;3.17;100.00
1401;BME280;46518;48.842;8.926;2024-01-07T11:44:57;96929.41;;;3.23;100.00
1401;BME280;46518;48.842;8.926;2024-01-07T11:47:27;96928.25;;;3.13;100.00
1401;BME280;46518;48.842;8.926;2024-01-07T11:49:55;96933.25;;;3.01;100.00
1401;BME280;46518;48.842;8.926;2024-01-07T11:52:23;96930.06;;;2.92;100.00
1401;BME280;46518;48.842;8.926;2024-01-07T11:54:51;96936.44;;;3.10;100.00
1401;BME280;46518;48.842;8.926;2024-01-07T11:57:20;96940.28;;;2.87;100.00
1401;BME280;46518;48.842;8.926;2024-01-07T11:59:48;96933.88;;;2.90;100.00
1401;BME280;46518;48.842;8.926;2024-01-07T12:02:16;96936.66;;;2.81;100.00
1401;BME280;46518;48.842;8.926;2024-01-07T12:04:45;96933.84;;;2.76;100.00
1401;BME280;46518;48.842;8.926;2024-01-07T12:07:18;96937.84;;;2.66;100.00
1401;BME280;46518;48.842;8.926;2024-01-07T12:09:55;96932.84;;;2.64;100.00
1401;BME280;46518;48.842;8.926;2024-01-07T12:12:23;96940.03;;;2.55;100.00
1401;BME280;46518;48.842;8.926;2024-01-07T12:14:52;96938.06;;;2.57;100.00
1401;BME280;46518;48.842;8.926;2024-01-07T12:17:21;96931.28;;;2.70;100.00
1401;BME280;46518;48.842;8.926;2024-01-07T12:19:50;96941.88;;;2.75;100.00
1401;BME280;46518;48.842;8.926;2024-01-07T12:22:19;96944.84;;;2.65;100.00
1401;BME280;46518;48.842;8.926;2024-01-07T12:25:13;96942.25;;;2.72;100.00
1401;BME280;46518;48.842;8.926;2024-01-07T12:27:41;96949.66;;;2.88;100.00
1401;BME280;46518;48.842;8.926;2024-01-07T12:30:12;96950.84;;;2.79;100.00
1401;BME280;46518;48.842;8.926;2024-01-07T12:32:40;96942.66;;;2.95;100.00
1401;BME280;46518;48.842;8.926;2024-01-07T12:35:10;96946.47;;;2.93;100.00
1401;BME280;46518;48.842;8.926;2024-01-07T12:37:38;96947.25;;;2.80;100.00
1401;BME280;46518;48.842;8.926;2024-01-07T12:40:07;96952.66;;;2.85;100.00
1401;BME280;46518;48.842;8.926;2024-01-07T12:42:38;96946.66;;;2.85;100.00
1401;BME280;46518;48.842;8.926;2024-01-07T12:45:12;96954.03;;;2.68;100.00
1401;BME280;46518;48.842;8.926;2024-01-07T12:47:42;96949.03;;;2.66;100.00
1401;BME280;46518;48.842;8.926;2024-01-07T12:50:13;96953.25;;;2.80;100.00
1401;BME280;46518;48.842;8.926;2024-01-07T12:52:42;96961.22;;;2.66;100.00
1401;BME280;46518;48.842;8.926;2024-01-07T12:55:13;96949.25;;;2.58;100.00
1401;BME280;46518;48.842;8.926;2024-01-07T12:57:42;96950.63;;;2.74;100.00
1401;BME280;46518;48.842;8.926;2024-01-07T13:00:11;96963.66;;;3.00;100.00
1401;BME280;46518;48.842;8.926;2024-01-07T13:02:39;96965.66;;;3.05;100.00
1401;BME280;46518;48.842;8.926;2024-01-07T13:05:08;96959.03;;;2.89;100.00
1401;BME280;46518;48.842;8.926;2024-01-07T13:07:38;96972.44;;;2.93;100.00
1401;BME280;46518;48.842;8.926;2024-01-07T13:10:07;96976.66;;;2.87;99.52
1401;BME280;46518;48.842;8.926;2024-01-07T13:12:36;96978.81;;;2.77;99.35
1401;BME280;46518;48.842;8.926;2024-01-07T13:15:14;96975.81;;;2.67;99.89
1401;BME280;46518;48.842;8.926;2024-01-07T13:17:44;96975.22;;;2.71;100.00
1401;BME280;46518;48.842;8.926;2024-01-07T13:20:12;96987.78;;;2.54;99.93
1401;BME280;46518;48.842;8.926;2024-01-07T13:22:42;96986.78;;;2.49;100.00
1401;BME280;46518;48.842;8.926;2024-01-07T13:25:35;96991.94;;;2.35;100.00
1401;BME280;46518;48.842;8.926;2024-01-07T13:28:03;96994.53;;;2.35;100.00
1401;BME280;46518;48.842;8.926;2024-01-07T13:30:31;96979.91;;;2.21;100.00
1401;BME280;46518;48.842;8.926;2024-01-07T13:33:01;97000.06;;;2.19;100.00